Cape Romanzof, Alaska
Current Conditions -  °F | °C
As of 5:55 PM on Saturday 25 Oct 2014 (Local Time) from PACZ Reporting Station
Clear Clear  
Wind Chill: 28°   Ceiling: Unl
Heat Index: 35°   Visibility: 10mi
Dew Point: 28°   Wind: 9mph
Humidity: 75%   Direction: 230°SW
Pressure: 29.72"   Gusts: NA
Location:  61.78°N, 166.04°W
Report Text: PACZ 260155Z AUTO 23008KT 10SM CLR 02/M02 A2972 RMK AO2 SLP071 T00171023
Loading
Personal Weather Stations






























Interactive Weather Map
Tropical Storm Tracking
New forecast layout! Learn more

10-Day Weather Forecast

Advertisements
Track Severe Weather on mobile